createdAt,value
2017-08-16T00:08:49.000Z,24.02
2017-08-16T00:18:48.000Z,23.98
2017-08-16T00:28:48.000Z,23.98
2017-08-16T00:38:48.000Z,23.97
2017-08-16T00:48:48.000Z,23.94
2017-08-16T00:58:48.000Z,23.91
2017-08-16T01:08:48.000Z,23.91
2017-08-16T01:18:48.000Z,23.88
2017-08-16T01:28:48.000Z,23.86
2017-08-16T01:38:48.000Z,23.83
2017-08-16T01:48:48.000Z,23.81
2017-08-16T01:58:48.000Z,23.79
2017-08-16T02:08:48.000Z,23.74
2017-08-16T02:18:48.000Z,23.75
2017-08-16T02:28:48.000Z,23.74
2017-08-16T02:38:48.000Z,23.71
2017-08-16T02:48:48.000Z,23.69
2017-08-16T02:58:48.000Z,23.68
2017-08-16T03:08:48.000Z,23.65
2017-08-16T03:18:48.000Z,23.63
2017-08-16T03:28:49.000Z,23.61
2017-08-16T03:38:49.000Z,23.59
2017-08-16T03:48:49.000Z,23.57
2017-08-16T03:58:49.000Z,23.54
2017-08-16T04:08:49.000Z,23.53
2017-08-16T04:18:49.000Z,23.5
2017-08-16T04:28:49.000Z,23.49
2017-08-16T04:38:49.000Z,23.47
2017-08-16T04:48:49.000Z,23.46
2017-08-16T04:58:49.000Z,23.45
2017-08-16T05:08:49.000Z,23.43
2017-08-16T05:18:49.000Z,23.42
2017-08-16T05:28:49.000Z,23.43
2017-08-16T05:38:49.000Z,23.42
2017-08-16T05:48:49.000Z,23.41
2017-08-16T05:58:49.000Z,23.42
2017-08-16T06:08:49.000Z,23.42
2017-08-16T06:18:49.000Z,23.45
2017-08-16T06:28:49.000Z,23.46
2017-08-16T06:38:49.000Z,23.47
2017-08-16T06:48:49.000Z,23.5
2017-08-16T06:58:49.000Z,23.54
2017-08-16T07:08:49.000Z,23.56
2017-08-16T07:18:49.000Z,23.59
2017-08-16T07:28:49.000Z,23.66
2017-08-16T07:38:49.000Z,23.68
2017-08-16T07:48:49.000Z,23.81
2017-08-16T07:58:49.000Z,23.85
2017-08-16T08:08:49.000Z,23.91
2017-08-16T08:18:49.000Z,23.98
2017-08-16T08:28:49.000Z,24.02
2017-08-16T08:38:49.000Z,24.24
2017-08-16T08:48:49.000Z,24.33
2017-08-16T08:58:49.000Z,24.45
2017-08-16T09:08:49.000Z,24.53
2017-08-16T09:18:49.000Z,24.69
2017-08-16T09:28:49.000Z,24.8
2017-08-16T09:38:49.000Z,24.95
2017-08-16T09:48:49.000Z,25.06
2017-08-16T09:58:49.000Z,25.14
2017-08-16T10:08:49.000Z,25.19
2017-08-16T10:18:53.000Z,25.31
2017-08-16T10:28:49.000Z,25.25
2017-08-16T10:38:49.000Z,25.42
2017-08-16T10:48:49.000Z,25.43
2017-08-16T10:58:49.000Z,25.6
2017-08-16T11:08:49.000Z,25.6
2017-08-16T11:18:50.000Z,25.68
2017-08-16T11:28:49.000Z,25.63
2017-08-16T11:38:49.000Z,25.68
2017-08-16T11:48:50.000Z,25.47
2017-08-16T11:58:49.000Z,25.58
2017-08-16T12:08:50.000Z,25.73
2017-08-16T12:18:50.000Z,25.74
2017-08-16T12:28:50.000Z,25.77
2017-08-16T12:38:50.000Z,25.66
2017-08-16T12:48:50.000Z,25.68
2017-08-16T12:58:50.000Z,25.7
2017-08-16T13:08:50.000Z,25.59
2017-08-16T13:18:50.000Z,25.63
2017-08-16T13:28:50.000Z,25.64
2017-08-16T13:38:50.000Z,25.59
2017-08-16T13:48:50.000Z,25.52
2017-08-16T13:58:50.000Z,25.36
2017-08-16T14:08:50.000Z,25.39
2017-08-16T14:18:50.000Z,25.44
2017-08-16T14:28:50.000Z,25.48
2017-08-16T14:38:50.000Z,25.46
2017-08-16T14:48:50.000Z,25.43
2017-08-16T14:58:50.000Z,25.46
2017-08-16T15:08:50.000Z,25.44
2017-08-16T15:18:50.000Z,25.36
2017-08-16T15:28:50.000Z,25.34
2017-08-16T15:38:50.000Z,25.41
2017-08-16T15:48:50.000Z,25.35
2017-08-16T15:58:50.000Z,25.34
2017-08-16T16:08:50.000Z,25.31
2017-08-16T16:18:50.000Z,25.29
2017-08-16T16:28:50.000Z,25.29
2017-08-16T16:38:50.000Z,25.25
2017-08-16T16:48:50.000Z,25.17
2017-08-16T16:58:50.000Z,25.25
2017-08-16T17:08:51.000Z,25.21
2017-08-16T17:18:50.000Z,25.2
2017-08-16T17:28:50.000Z,25.25
2017-08-16T17:38:51.000Z,25.27
2017-08-16T17:48:50.000Z,25.25
2017-08-16T18:08:50.000Z,25.29
2017-08-16T18:18:50.000Z,25.35
2017-08-16T18:28:50.000Z,25.33
2017-08-16T18:38:50.000Z,25.29
2017-08-16T18:48:50.000Z,25.24
2017-08-16T18:58:50.000Z,25.22
2017-08-16T19:08:50.000Z,25.19
2017-08-16T19:18:54.000Z,25.16
2017-08-16T19:28:50.000Z,25.18
2017-08-16T19:38:50.000Z,25.16
2017-08-16T19:48:50.000Z,25.16
2017-08-16T19:58:50.000Z,25.13
2017-08-16T20:08:51.000Z,25.15
2017-08-16T20:18:51.000Z,25.12
2017-08-16T20:28:51.000Z,25.12
2017-08-16T20:38:51.000Z,25.11
2017-08-16T20:48:51.000Z,25.11
2017-08-16T20:58:51.000Z,25.05
2017-08-16T21:08:51.000Z,25.03
2017-08-16T21:18:51.000Z,24.99
2017-08-16T21:28:51.000Z,24.94
2017-08-16T21:38:51.000Z,24.86
2017-08-16T21:48:51.000Z,24.79
2017-08-16T21:58:51.000Z,24.72
2017-08-16T22:08:52.000Z,24.71
2017-08-16T22:18:51.000Z,24.68
2017-08-16T22:28:51.000Z,24.66
2017-08-16T22:38:51.000Z,24.64
2017-08-16T22:48:51.000Z,24.58
2017-08-16T22:58:51.000Z,24.54
2017-08-16T23:08:51.000Z,24.51
2017-08-16T23:18:51.000Z,24.54
2017-08-16T23:28:51.000Z,24.53
2017-08-16T23:38:51.000Z,24.49
2017-08-16T23:48:51.000Z,24.48
2017-08-16T23:58:51.000Z,24.45
